Dallas Love Field
KDAL : now visible

Airfield :











YOU CAN JOIN US ON...

 
LOGIN :

Register | Disclaimer

   EN    FR    IT 

 









Legend :    VFR   Marginal VFR   IFR   Intensive IFR   Very Intensive IFR
Visi :
Ceiling :
>= 8 km
>= 3000ft
5 to 8 km
1000 to 3000 ft
1500m to 5 km
500 to 1000 ft
800 to 1500m
200 to 500 ft
< 800m
< 200 ft
Symbols :   Thunderstorms  Fog  Heavy snow  Heavy precipitations  Wind > 20 kt







- Airport Elevation : 487 ft
- IATA code : DAL


KDAL - Dallas Love Field

CURRENT METAR :
  • 250153Z 20004KT 10SM FEW055TCU FEW090 SCT130 SCT200 24/17 A2995 RMK AO2 RAB14E42 TSB14E42 SLP137 CONS LTGICCC DSNT NE-E SW-W TS DSIPTD CB DSNT NE-E SW-W MOV E TCU OHD-W-NW P0000 T02390172

EXPIRED METARs :
  • 250142Z 19006KT 10SM FEW055TCU FEW070 SCT110 SCT200 23/17 A2994 RMK AO2 RAB14E42 TSB14E42 CONS LTGICCC DSNT NE-E TS DSIPTD CB DSNT NE-E MOV E TCU W P0000 T02330172
  • 250114Z 18012KT 10SM -TSRA SCT060CB SCT090 BKN130 BKN250 24/17 A2994 RMK AO2 RAB14 TSB14 FRQ LTGICCCCG W-N AND DSNT N-E TS W-N MOV E CB DSNT N-E MOV E P0000 T02440167
  • 250053Z 17012KT 10SM SCT060CB SCT090 BKN200 BKN250 24/17 A2993 RMK AO2 SLP131 FRQ LTGICCCCG DSNT W-N-E CB OHD-W-N AND DSNT W-N-E MOV E T02440167
  • 250033Z 18010KT 10SM SCT060CB SCT090 BKN250 25/17 A2993 RMK AO2 OCNL LTGICCCCG DSNT W-N-E CB W-NW AND DSNT W-N-E MOV E TCU NW-N T02500167
  • 242353Z 18018G24KT 10SM FEW060 FEW090 SCT250 26/17 A2991 RMK AO2 SLP123 OCNL LTGIC CB DSNT NW-NE MOV E TCU DSNT W-NW 60001 T02560172 10278 20244 56016

TAF KDAL
Valid from the 25 at 02:00 until the 26 at 00:00 UTC


250139Z 2502/2524 17010KT P6SM VCTS SCT060CB SCT090 BKN150
FM250500 35009KT P6SM SCT040 BKN080
FM250900 02011KT P6SM SCT100 BKN250
FM251500 36013KT P6SM SKC
KZFW FIR / North America



MET'MAP, your aeronautical weather chart ! - Copyright ORBIFLY December 2007 - Disclaimer

ORBIFLY MET'MAP TEAM :

Programming & Development : Alexandra Zaïnal
Concept & Development : Baudouin d'Aumeries
Co-Development & Prog : Marc-Olivier Méhu
Technical & hardware support : Manuel Goepfert

Contact : metmap@orbifly.com




SOURCES & CREDITS :

   NOAA       Earth
Advisory